sensor_id;sensor_type;location;lat;lon;timestamp;P1;durP1;ratioP1;P2;durP2;ratioP2
30543;SDS011;43388;46.308;4.600;2023-07-31T00:00:35;8.52;;;2.80;;
30543;SDS011;43388;46.308;4.600;2023-07-31T00:03:01;4.35;;;2.75;;
30543;SDS011;43388;46.308;4.600;2023-07-31T00:05:27;6.65;;;2.63;;
30543;SDS011;43388;46.308;4.600;2023-07-31T00:07:53;3.35;;;2.72;;
30543;SDS011;43388;46.308;4.600;2023-07-31T00:10:19;4.82;;;2.70;;
30543;SDS011;43388;46.308;4.600;2023-07-31T00:12:46;4.70;;;2.55;;
30543;SDS011;43388;46.308;4.600;2023-07-31T00:15:13;5.45;;;2.95;;
30543;SDS011;43388;46.308;4.600;2023-07-31T00:17:39;5.63;;;2.92;;
30543;SDS011;43388;46.308;4.600;2023-07-31T00:20:05;10.55;;;2.70;;
30543;SDS011;43388;46.308;4.600;2023-07-31T00:22:31;5.38;;;2.75;;
30543;SDS011;43388;46.308;4.600;2023-07-31T00:24:57;7.03;;;3.00;;
30543;SDS011;43388;46.308;4.600;2023-07-31T00:27:24;5.82;;;2.50;;
30543;SDS011;43388;46.308;4.600;2023-07-31T00:29:50;5.30;;;2.85;;
30543;SDS011;43388;46.308;4.600;2023-07-31T00:32:16;6.97;;;2.45;;
30543;SDS011;43388;46.308;4.600;2023-07-31T00:34:42;10.43;;;3.42;;
30543;SDS011;43388;46.308;4.600;2023-07-31T00:37:08;6.20;;;2.95;;
30543;SDS011;43388;46.308;4.600;2023-07-31T00:39:34;7.47;;;2.85;;
30543;SDS011;43388;46.308;4.600;2023-07-31T00:42:01;6.03;;;2.88;;
30543;SDS011;43388;46.308;4.600;2023-07-31T00:44:27;4.93;;;2.97;;
30543;SDS011;43388;46.308;4.600;2023-07-31T00:46:53;6.13;;;2.80;;
30543;SDS011;43388;46.308;4.600;2023-07-31T00:49:20;5.05;;;2.88;;
30543;SDS011;43388;46.308;4.600;2023-07-31T00:51:46;6.72;;;2.80;;
30543;SDS011;43388;46.308;4.600;2023-07-31T00:54:12;5.63;;;2.97;;
30543;SDS011;43388;46.308;4.600;2023-07-31T00:56:38;5.43;;;2.60;;
30543;SDS011;43388;46.308;4.600;2023-07-31T00:59:04;5.70;;;2.55;;
30543;SDS011;43388;46.308;4.600;2023-07-31T01:01:30;5.10;;;2.47;;
30543;SDS011;43388;46.308;4.600;2023-07-31T01:03:56;6.25;;;2.85;;
30543;SDS011;43388;46.308;4.600;2023-07-31T01:08:54;6.95;;;2.80;;
30543;SDS011;43388;46.308;4.600;2023-07-31T01:11:39;5.72;;;2.85;;
30543;SDS011;43388;46.308;4.600;2023-07-31T01:16:34;6.15;;;2.88;;
30543;SDS011;43388;46.308;4.600;2023-07-31T01:19:00;5.65;;;2.40;;
30543;SDS011;43388;46.308;4.600;2023-07-31T01:24:08;8.43;;;2.97;;
30543;SDS011;43388;46.308;4.600;2023-07-31T01:26:41;3.78;;;2.70;;
30543;SDS011;43388;46.308;4.600;2023-07-31T01:29:17;15.88;;;2.85;;
30543;SDS011;43388;46.308;4.600;2023-07-31T01:31:47;3.50;;;2.70;;
30543;SDS011;43388;46.308;4.600;2023-07-31T01:34:14;5.88;;;2.88;;
30543;SDS011;43388;46.308;4.600;2023-07-31T01:36:41;5.70;;;2.60;;
30543;SDS011;43388;46.308;4.600;2023-07-31T01:39:07;5.85;;;2.70;;
30543;SDS011;43388;46.308;4.600;2023-07-31T01:41:33;6.80;;;2.60;;
30543;SDS011;43388;46.308;4.600;2023-07-31T01:43:59;5.13;;;2.53;;
30543;SDS011;43388;46.308;4.600;2023-07-31T01:46:25;3.85;;;2.28;;
30543;SDS011;43388;46.308;4.600;2023-07-31T01:48:52;9.75;;;3.17;;
30543;SDS011;43388;46.308;4.600;2023-07-31T01:51:18;4.38;;;2.58;;
30543;SDS011;43388;46.308;4.600;2023-07-31T01:53:44;8.38;;;3.40;;
30543;SDS011;43388;46.308;4.600;2023-07-31T01:56:10;7.93;;;3.05;;
30543;SDS011;43388;46.308;4.600;2023-07-31T01:58:36;6.63;;;2.63;;
30543;SDS011;43388;46.308;4.600;2023-07-31T02:01:02;5.72;;;2.45;;
30543;SDS011;43388;46.308;4.600;2023-07-31T02:03:28;6.63;;;2.80;;
30543;SDS011;43388;46.308;4.600;2023-07-31T02:05:54;7.57;;;3.03;;
30543;SDS011;43388;46.308;4.600;2023-07-31T02:08:20;8.23;;;2.92;;
30543;SDS011;43388;46.308;4.600;2023-07-31T02:10:46;7.07;;;3.17;;
30543;SDS011;43388;46.308;4.600;2023-07-31T02:13:12;5.97;;;3.33;;
30543;SDS011;43388;46.308;4.600;2023-07-31T02:15:38;8.23;;;2.67;;
30543;SDS011;43388;46.308;4.600;2023-07-31T02:18:04;4.82;;;2.70;;
30543;SDS011;43388;46.308;4.600;2023-07-31T02:20:33;7.78;;;3.20;;
30543;SDS011;43388;46.308;4.600;2023-07-31T02:22:59;4.75;;;2.50;;
30543;SDS011;43388;46.308;4.600;2023-07-31T02:25:25;7.82;;;2.95;;
30543;SDS011;43388;46.308;4.600;2023-07-31T02:27:51;5.18;;;2.85;;
30543;SDS011;43388;46.308;4.600;2023-07-31T02:30:17;4.78;;;2.80;;
30543;SDS011;43388;46.308;4.600;2023-07-31T02:32:43;5.47;;;2.60;;
30543;SDS011;43388;46.308;4.600;2023-07-31T02:35:09;5.57;;;3.10;;
30543;SDS011;43388;46.308;4.600;2023-07-31T02:37:36;5.68;;;2.75;;
30543;SDS011;43388;46.308;4.600;2023-07-31T02:40:04;5.38;;;3.30;;
30543;SDS011;43388;46.308;4.600;2023-07-31T02:42:30;6.97;;;3.22;;
30543;SDS011;43388;46.308;4.600;2023-07-31T02:44:56;4.82;;;2.67;;
30543;SDS011;43388;46.308;4.600;2023-07-31T02:47:22;5.70;;;2.78;;
30543;SDS011;43388;46.308;4.600;2023-07-31T02:49:48;6.28;;;2.72;;
30543;SDS011;43388;46.308;4.600;2023-07-31T02:52:14;6.70;;;3.42;;
30543;SDS011;43388;46.308;4.600;2023-07-31T02:54:40;5.30;;;2.63;;
30543;SDS011;43388;46.308;4.600;2023-07-31T02:57:06;6.32;;;2.78;;
30543;SDS011;43388;46.308;4.600;2023-07-31T02:59:32;3.83;;;2.53;;
30543;SDS011;43388;46.308;4.600;2023-07-31T03:01:58;6.60;;;2.65;;
30543;SDS011;43388;46.308;4.600;2023-07-31T03:04:24;3.83;;;2.75;;
30543;SDS011;43388;46.308;4.600;2023-07-31T03:06:50;6.75;;;3.03;;
30543;SDS011;43388;46.308;4.600;2023-07-31T03:09:16;6.68;;;2.88;;
30543;SDS011;43388;46.308;4.600;2023-07-31T03:11:42;6.47;;;2.72;;
30543;SDS011;43388;46.308;4.600;2023-07-31T03:14:08;6.82;;;3.20;;
30543;SDS011;43388;46.308;4.600;2023-07-31T03:16:34;8.05;;;2.70;;
30543;SDS011;43388;46.308;4.600;2023-07-31T03:19:00;7.40;;;3.00;;
30543;SDS011;43388;46.308;4.600;2023-07-31T03:21:26;2.90;;;2.33;;
30543;SDS011;43388;46.308;4.600;2023-07-31T03:23:52;5.40;;;3.08;;
30543;SDS011;43388;46.308;4.600;2023-07-31T03:26:18;5.03;;;3.38;;
30543;SDS011;43388;46.308;4.600;2023-07-31T03:28:44;10.00;;;3.22;;
30543;SDS011;43388;46.308;4.600;2023-07-31T03:31:10;4.30;;;2.33;;
30543;SDS011;43388;46.308;4.600;2023-07-31T03:33:36;6.32;;;2.50;;
30543;SDS011;43388;46.308;4.600;2023-07-31T03:36:02;6.57;;;2.28;;
30543;SDS011;43388;46.308;4.600;2023-07-31T03:38:28;6.03;;;3.00;;
30543;SDS011;43388;46.308;4.600;2023-07-31T03:40:54;4.03;;;2.80;;
30543;SDS011;43388;46.308;4.600;2023-07-31T03:43:20;3.45;;;2.83;;
30543;SDS011;43388;46.308;4.600;2023-07-31T03:45:46;4.95;;;2.90;;
30543;SDS011;43388;46.308;4.600;2023-07-31T03:48:13;7.95;;;2.95;;
30543;SDS011;43388;46.308;4.600;2023-07-31T03:50:40;4.57;;;2.67;;
30543;SDS011;43388;46.308;4.600;2023-07-31T03:53:06;5.13;;;2.88;;
30543;SDS011;43388;46.308;4.600;2023-07-31T03:55:32;5.63;;;2.55;;
30543;SDS011;43388;46.308;4.600;2023-07-31T03:57:58;7.05;;;2.88;;
30543;SDS011;43388;46.308;4.600;2023-07-31T04:00:25;6.00;;;2.83;;
30543;SDS011;43388;46.308;4.600;2023-07-31T04:02:52;6.50;;;2.95;;
30543;SDS011;43388;46.308;4.600;2023-07-31T04:05:18;7.10;;;2.90;;
30543;SDS011;43388;46.308;4.600;2023-07-31T04:07:44;6.43;;;3.00;;
30543;SDS011;43388;46.308;4.600;2023-07-31T04:10:10;6.55;;;3.33;;
30543;SDS011;43388;46.308;4.600;2023-07-31T04:12:36;5.75;;;2.90;;
30543;SDS011;43388;46.308;4.600;2023-07-31T04:15:02;3.92;;;2.60;;
30543;SDS011;43388;46.308;4.600;2023-07-31T04:17:28;9.18;;;3.47;;
30543;SDS011;43388;46.308;4.600;2023-07-31T04:19:54;6.88;;;3.22;;
30543;SDS011;43388;46.308;4.600;2023-07-31T04:22:20;4.45;;;3.00;;
30543;SDS011;43388;46.308;4.600;2023-07-31T04:24:46;4.72;;;2.83;;
30543;SDS011;43388;46.308;4.600;2023-07-31T04:27:12;5.82;;;2.85;;
30543;SDS011;43388;46.308;4.600;2023-07-31T04:29:38;9.20;;;3.53;;
30543;SDS011;43388;46.308;4.600;2023-07-31T04:32:05;8.60;;;4.05;;
30543;SDS011;43388;46.308;4.600;2023-07-31T04:34:31;8.85;;;3.13;;
30543;SDS011;43388;46.308;4.600;2023-07-31T04:36:57;5.82;;;3.00;;
30543;SDS011;43388;46.308;4.600;2023-07-31T04:39:23;7.57;;;2.50;;
30543;SDS011;43388;46.308;4.600;2023-07-31T04:41:49;8.15;;;4.22;;
30543;SDS011;43388;46.308;4.600;2023-07-31T04:44:15;4.50;;;2.78;;
30543;SDS011;43388;46.308;4.600;2023-07-31T04:46:41;8.00;;;2.92;;
30543;SDS011;43388;46.308;4.600;2023-07-31T04:49:07;8.02;;;3.00;;
30543;SDS011;43388;46.308;4.600;2023-07-31T04:51:33;7.55;;;3.05;;
30543;SDS011;43388;46.308;4.600;2023-07-31T04:53:59;6.60;;;2.60;;
30543;SDS011;43388;46.308;4.600;2023-07-31T04:56:25;5.72;;;3.10;;
30543;SDS011;43388;46.308;4.600;2023-07-31T04:58:51;3.90;;;2.60;;
30543;SDS011;43388;46.308;4.600;2023-07-31T05:01:17;5.88;;;2.80;;
30543;SDS011;43388;46.308;4.600;2023-07-31T05:03:43;7.68;;;2.78;;
30543;SDS011;43388;46.308;4.600;2023-07-31T05:06:09;8.27;;;3.03;;
30543;SDS011;43388;46.308;4.600;2023-07-31T05:08:35;4.07;;;2.80;;
30543;SDS011;43388;46.308;4.600;2023-07-31T05:11:01;4.30;;;2.85;;
30543;SDS011;43388;46.308;4.600;2023-07-31T05:13:27;6.22;;;2.72;;
30543;SDS011;43388;46.308;4.600;2023-07-31T05:15:53;5.00;;;3.10;;
30543;SDS011;43388;46.308;4.600;2023-07-31T05:18:19;11.90;;;4.03;;
30543;SDS011;43388;46.308;4.600;2023-07-31T05:20:45;6.47;;;2.50;;
30543;SDS011;43388;46.308;4.600;2023-07-31T05:23:11;7.53;;;3.28;;
30543;SDS011;43388;46.308;4.600;2023-07-31T05:25:37;5.50;;;3.42;;
30543;SDS011;43388;46.308;4.600;2023-07-31T05:28:03;6.55;;;2.90;;
30543;SDS011;43388;46.308;4.600;2023-07-31T05:30:30;8.38;;;3.28;;
30543;SDS011;43388;46.308;4.600;2023-07-31T05:32:56;5.90;;;2.83;;
30543;SDS011;43388;46.308;4.600;2023-07-31T05:35:22;7.50;;;2.83;;
30543;SDS011;43388;46.308;4.600;2023-07-31T05:37:48;6.93;;;3.03;;
30543;SDS011;43388;46.308;4.600;2023-07-31T05:40:14;7.93;;;3.08;;
30543;SDS011;43388;46.308;4.600;2023-07-31T05:42:40;5.63;;;3.28;;
30543;SDS011;43388;46.308;4.600;2023-07-31T05:45:06;8.00;;;4.15;;
30543;SDS011;43388;46.308;4.600;2023-07-31T05:47:33;7.07;;;3.35;;
30543;SDS011;43388;46.308;4.600;2023-07-31T05:49:59;11.05;;;2.70;;
30543;SDS011;43388;46.308;4.600;2023-07-31T05:52:25;5.68;;;2.83;;
30543;SDS011;43388;46.308;4.600;2023-07-31T05:54:51;10.88;;;3.75;;
30543;SDS011;43388;46.308;4.600;2023-07-31T05:57:17;5.88;;;3.25;;
30543;SDS011;43388;46.308;4.600;2023-07-31T05:59:43;6.20;;;3.05;;
30543;SDS011;43388;46.308;4.600;2023-07-31T06:02:09;8.45;;;3.00;;
30543;SDS011;43388;46.308;4.600;2023-07-31T06:04:35;9.00;;;3.10;;
30543;SDS011;43388;46.308;4.600;2023-07-31T06:07:01;6.90;;;3.25;;
30543;SDS011;43388;46.308;4.600;2023-07-31T06:09:28;5.05;;;2.85;;
30543;SDS011;43388;46.308;4.600;2023-07-31T06:11:54;4.47;;;2.72;;
30543;SDS011;43388;46.308;4.600;2023-07-31T06:14:20;8.23;;;3.00;;
30543;SDS011;43388;46.308;4.600;2023-07-31T06:16:46;4.45;;;2.80;;
30543;SDS011;43388;46.308;4.600;2023-07-31T06:19:12;6.72;;;3.42;;
30543;SDS011;43388;46.308;4.600;2023-07-31T06:21:38;6.30;;;3.03;;
30543;SDS011;43388;46.308;4.600;2023-07-31T06:24:07;6.93;;;3.17;;
30543;SDS011;43388;46.308;4.600;2023-07-31T06:26:33;6.80;;;3.13;;
30543;SDS011;43388;46.308;4.600;2023-07-31T06:28:59;6.97;;;3.65;;
30543;SDS011;43388;46.308;4.600;2023-07-31T06:31:25;8.77;;;3.30;;
30543;SDS011;43388;46.308;4.600;2023-07-31T06:33:51;6.13;;;3.45;;
30543;SDS011;43388;46.308;4.600;2023-07-31T06:36:18;8.55;;;3.45;;
30543;SDS011;43388;46.308;4.600;2023-07-31T06:38:44;4.80;;;3.20;;
30543;SDS011;43388;46.308;4.600;2023-07-31T06:41:10;6.22;;;3.55;;
30543;SDS011;43388;46.308;4.600;2023-07-31T06:43:36;5.35;;;3.67;;
30543;SDS011;43388;46.308;4.600;2023-07-31T06:46:06;9.05;;;3.72;;
30543;SDS011;43388;46.308;4.600;2023-07-31T06:48:32;5.88;;;3.80;;
30543;SDS011;43388;46.308;4.600;2023-07-31T06:50:58;9.38;;;3.42;;
30543;SDS011;43388;46.308;4.600;2023-07-31T06:53:24;11.27;;;3.97;;
30543;SDS011;43388;46.308;4.600;2023-07-31T06:55:50;9.02;;;4.10;;
30543;SDS011;43388;46.308;4.600;2023-07-31T06:58:17;7.05;;;3.75;;
30543;SDS011;43388;46.308;4.600;2023-07-31T07:00:43;10.45;;;4.15;;
30543;SDS011;43388;46.308;4.600;2023-07-31T07:03:09;10.02;;;4.90;;
30543;SDS011;43388;46.308;4.600;2023-07-31T07:05:35;9.13;;;3.80;;
30543;SDS011;43388;46.308;4.600;2023-07-31T07:08:01;9.98;;;4.43;;
30543;SDS011;43388;46.308;4.600;2023-07-31T07:10:27;10.75;;;4.88;;
30543;SDS011;43388;46.308;4.600;2023-07-31T07:12:53;9.25;;;4.00;;
30543;SDS011;43388;46.308;4.600;2023-07-31T07:15:20;8.25;;;4.30;;
30543;SDS011;43388;46.308;4.600;2023-07-31T07:17:46;11.35;;;4.25;;
30543;SDS011;43388;46.308;4.600;2023-07-31T07:20:12;9.52;;;4.72;;
30543;SDS011;43388;46.308;4.600;2023-07-31T07:22:38;9.65;;;4.35;;
30543;SDS011;43388;46.308;4.600;2023-07-31T07:25:06;10.13;;;3.85;;
30543;SDS011;43388;46.308;4.600;2023-07-31T07:27:32;6.70;;;4.10;;
30543;SDS011;43388;46.308;4.600;2023-07-31T07:29:58;10.85;;;3.90;;
30543;SDS011;43388;46.308;4.600;2023-07-31T07:32:24;12.02;;;3.72;;
30543;SDS011;43388;46.308;4.600;2023-07-31T07:34:51;8.50;;;4.43;;
30543;SDS011;43388;46.308;4.600;2023-07-31T07:37:17;11.32;;;4.38;;
30543;SDS011;43388;46.308;4.600;2023-07-31T07:39:43;12.85;;;4.97;;
30543;SDS011;43388;46.308;4.600;2023-07-31T07:42:09;9.70;;;5.25;;
30543;SDS011;43388;46.308;4.600;2023-07-31T07:44:35;10.45;;;4.93;;
30543;SDS011;43388;46.308;4.600;2023-07-31T07:47:01;15.25;;;4.78;;
30543;SDS011;43388;46.308;4.600;2023-07-31T07:49:27;11.48;;;4.43;;
30543;SDS011;43388;46.308;4.600;2023-07-31T07:51:53;11.65;;;5.07;;
30543;SDS011;43388;46.308;4.600;2023-07-31T07:54:19;12.38;;;4.72;;
30543;SDS011;43388;46.308;4.600;2023-07-31T07:56:48;7.22;;;4.03;;
30543;SDS011;43388;46.308;4.600;2023-07-31T07:59:14;11.38;;;4.75;;
30543;SDS011;43388;46.308;4.600;2023-07-31T08:01:40;8.88;;;4.55;;
30543;SDS011;43388;46.308;4.600;2023-07-31T08:04:06;9.00;;;4.75;;
30543;SDS011;43388;46.308;4.600;2023-07-31T08:06:32;9.00;;;4.63;;
30543;SDS011;43388;46.308;4.600;2023-07-31T08:08:59;8.75;;;4.22;;
30543;SDS011;43388;46.308;4.600;2023-07-31T08:11:30;8.80;;;4.72;;
30543;SDS011;43388;46.308;4.600;2023-07-31T08:13:56;10.90;;;5.03;;
30543;SDS011;43388;46.308;4.600;2023-07-31T08:16:22;9.73;;;5.57;;
30543;SDS011;43388;46.308;4.600;2023-07-31T08:18:48;7.53;;;4.40;;
30543;SDS011;43388;46.308;4.600;2023-07-31T08:21:14;8.35;;;4.82;;
30543;SDS011;43388;46.308;4.600;2023-07-31T08:23:40;9.82;;;5.10;;
30543;SDS011;43388;46.308;4.600;2023-07-31T08:26:06;8.75;;;5.32;;
30543;SDS011;43388;46.308;4.600;2023-07-31T08:28:32;11.05;;;4.82;;
30543;SDS011;43388;46.308;4.600;2023-07-31T08:30:58;11.43;;;4.88;;
30543;SDS011;43388;46.308;4.600;2023-07-31T08:33:24;10.13;;;4.32;;
30543;SDS011;43388;46.308;4.600;2023-07-31T08:35:50;7.88;;;4.28;;
30543;SDS011;43388;46.308;4.600;2023-07-31T08:38:16;9.20;;;4.72;;
30543;SDS011;43388;46.308;4.600;2023-07-31T08:40:42;10.77;;;4.57;;
30543;SDS011;43388;46.308;4.600;2023-07-31T08:43:08;11.65;;;4.53;;
30543;SDS011;43388;46.308;4.600;2023-07-31T08:45:34;9.82;;;6.43;;
30543;SDS011;43388;46.308;4.600;2023-07-31T08:48:00;12.52;;;5.78;;
30543;SDS011;43388;46.308;4.600;2023-07-31T08:50:26;11.95;;;5.55;;
30543;SDS011;43388;46.308;4.600;2023-07-31T08:52:53;10.00;;;5.28;;
30543;SDS011;43388;46.308;4.600;2023-07-31T08:55:19;8.52;;;4.95;;
30543;SDS011;43388;46.308;4.600;2023-07-31T08:57:50;10.27;;;5.35;;
30543;SDS011;43388;46.308;4.600;2023-07-31T09:00:17;9.57;;;4.60;;
30543;SDS011;43388;46.308;4.600;2023-07-31T09:02:54;11.60;;;4.65;;
30543;SDS011;43388;46.308;4.600;2023-07-31T09:05:21;9.20;;;4.47;;
30543;SDS011;43388;46.308;4.600;2023-07-31T09:07:48;12.20;;;4.10;;
30543;SDS011;43388;46.308;4.600;2023-07-31T09:10:15;11.20;;;4.45;;
30543;SDS011;43388;46.308;4.600;2023-07-31T09:12:41;9.10;;;4.25;;
30543;SDS011;43388;46.308;4.600;2023-07-31T09:15:08;12.63;;;4.40;;
30543;SDS011;43388;46.308;4.600;2023-07-31T09:17:35;11.00;;;4.80;;
30543;SDS011;43388;46.308;4.600;2023-07-31T09:20:34;9.80;;;4.63;;
30543;SDS011;43388;46.308;4.600;2023-07-31T09:22:53;11.77;;;5.38;;
30543;SDS011;43388;46.308;4.600;2023-07-31T09:25:21;12.45;;;4.25;;
30543;SDS011;43388;46.308;4.600;2023-07-31T09:27:48;7.57;;;4.45;;
30543;SDS011;43388;46.308;4.600;2023-07-31T09:30:15;8.77;;;4.30;;
30543;SDS011;43388;46.308;4.600;2023-07-31T09:32:42;7.78;;;3.88;;
30543;SDS011;43388;46.308;4.600;2023-07-31T09:35:18;9.95;;;4.20;;
30543;SDS011;43388;46.308;4.600;2023-07-31T09:37:52;9.35;;;4.38;;
30543;SDS011;43388;46.308;4.600;2023-07-31T09:40:24;7.93;;;4.43;;
30543;SDS011;43388;46.308;4.600;2023-07-31T09:42:51;8.25;;;4.07;;
30543;SDS011;43388;46.308;4.600;2023-07-31T09:45:17;6.40;;;4.10;;
30543;SDS011;43388;46.308;4.600;2023-07-31T09:47:47;9.50;;;4.22;;
30543;SDS011;43388;46.308;4.600;2023-07-31T09:50:14;9.95;;;5.07;;
30543;SDS011;43388;46.308;4.600;2023-07-31T09:52:43;7.25;;;4.18;;
30543;SDS011;43388;46.308;4.600;2023-07-31T09:55:09;10.57;;;4.80;;
30543;SDS011;43388;46.308;4.600;2023-07-31T09:57:48;9.95;;;4.03;;
30543;SDS011;43388;46.308;4.600;2023-07-31T10:00:16;4.40;;;3.65;;
30543;SDS011;43388;46.308;4.600;2023-07-31T10:02:43;9.13;;;4.15;;
30543;SDS011;43388;46.308;4.600;2023-07-31T10:05:10;8.48;;;4.53;;
30543;SDS011;43388;46.308;4.600;2023-07-31T10:07:38;8.80;;;4.15;;
30543;SDS011;43388;46.308;4.600;2023-07-31T10:10:05;8.45;;;4.05;;
30543;SDS011;43388;46.308;4.600;2023-07-31T10:12:33;8.90;;;4.43;;
30543;SDS011;43388;46.308;4.600;2023-07-31T10:14:59;7.25;;;3.65;;
30543;SDS011;43388;46.308;4.600;2023-07-31T10:17:26;9.15;;;4.63;;
30543;SDS011;43388;46.308;4.600;2023-07-31T10:19:52;7.93;;;4.30;;
30543;SDS011;43388;46.308;4.600;2023-07-31T10:22:19;8.65;;;4.15;;
30543;SDS011;43388;46.308;4.600;2023-07-31T10:24:45;7.95;;;4.10;;
30543;SDS011;43388;46.308;4.600;2023-07-31T10:27:12;10.48;;;4.68;;
30543;SDS011;43388;46.308;4.600;2023-07-31T10:29:38;8.98;;;3.67;;
30543;SDS011;43388;46.308;4.600;2023-07-31T10:32:05;8.77;;;3.85;;
30543;SDS011;43388;46.308;4.600;2023-07-31T10:34:34;9.50;;;4.10;;
30543;SDS011;43388;46.308;4.600;2023-07-31T10:39:45;6.95;;;3.83;;
30543;SDS011;43388;46.308;4.600;2023-07-31T10:42:20;8.90;;;3.65;;
30543;SDS011;43388;46.308;4.600;2023-07-31T10:44:56;6.85;;;3.78;;
30543;SDS011;43388;46.308;4.600;2023-07-31T10:47:22;7.80;;;3.67;;
30543;SDS011;43388;46.308;4.600;2023-07-31T10:49:48;4.82;;;3.50;;
30543;SDS011;43388;46.308;4.600;2023-07-31T10:52:15;6.97;;;3.72;;
30543;SDS011;43388;46.308;4.600;2023-07-31T10:54:47;6.00;;;3.92;;
30543;SDS011;43388;46.308;4.600;2023-07-31T10:57:22;11.75;;;4.35;;
30543;SDS011;43388;46.308;4.600;2023-07-31T10:59:50;9.27;;;4.25;;
30543;SDS011;43388;46.308;4.600;2023-07-31T11:02:26;8.32;;;3.97;;
30543;SDS011;43388;46.308;4.600;2023-07-31T11:05:10;8.70;;;3.92;;
30543;SDS011;43388;46.308;4.600;2023-07-31T11:07:46;6.72;;;3.83;;
30543;SDS011;43388;46.308;4.600;2023-07-31T11:10:14;5.93;;;3.80;;
30543;SDS011;43388;46.308;4.600;2023-07-31T11:12:41;11.07;;;4.55;;
30543;SDS011;43388;46.308;4.600;2023-07-31T11:15:07;6.88;;;3.83;;
30543;SDS011;43388;46.308;4.600;2023-07-31T11:17:37;7.68;;;3.80;;
30543;SDS011;43388;46.308;4.600;2023-07-31T11:20:04;12.30;;;4.10;;
30543;SDS011;43388;46.308;4.600;2023-07-31T11:22:30;7.75;;;4.05;;
30543;SDS011;43388;46.308;4.600;2023-07-31T11:24:56;10.32;;;3.60;;
30543;SDS011;43388;46.308;4.600;2023-07-31T11:27:22;5.43;;;3.67;;
30543;SDS011;43388;46.308;4.600;2023-07-31T11:29:50;8.45;;;3.75;;
30543;SDS011;43388;46.308;4.600;2023-07-31T11:32:16;6.45;;;3.83;;
30543;SDS011;43388;46.308;4.600;2023-07-31T11:34:52;7.25;;;4.03;;
30543;SDS011;43388;46.308;4.600;2023-07-31T11:37:18;6.20;;;4.00;;
30543;SDS011;43388;46.308;4.600;2023-07-31T11:39:58;8.65;;;3.80;;
30543;SDS011;43388;46.308;4.600;2023-07-31T11:42:24;6.22;;;4.10;;
30543;SDS011;43388;46.308;4.600;2023-07-31T11:44:50;6.50;;;4.50;;
30543;SDS011;43388;46.308;4.600;2023-07-31T11:47:16;5.97;;;3.88;;
30543;SDS011;43388;46.308;4.600;2023-07-31T11:49:43;7.72;;;3.97;;
30543;SDS011;43388;46.308;4.600;2023-07-31T11:52:09;6.25;;;3.70;;
30543;SDS011;43388;46.308;4.600;2023-07-31T11:54:36;8.00;;;3.83;;
30543;SDS011;43388;46.308;4.600;2023-07-31T11:57:02;5.22;;;3.78;;
30543;SDS011;43388;46.308;4.600;2023-07-31T11:59:29;9.60;;;4.30;;
30543;SDS011;43388;46.308;4.600;2023-07-31T12:01:55;6.50;;;4.13;;
30543;SDS011;43388;46.308;4.600;2023-07-31T12:04:21;7.75;;;3.80;;
30543;SDS011;43388;46.308;4.600;2023-07-31T12:06:47;7.95;;;3.78;;
30543;SDS011;43388;46.308;4.600;2023-07-31T12:09:16;6.53;;;3.67;;
30543;SDS011;43388;46.308;4.600;2023-07-31T12:11:46;5.20;;;3.80;;
30543;SDS011;43388;46.308;4.600;2023-07-31T12:14:21;5.72;;;4.03;;
30543;SDS011;43388;46.308;4.600;2023-07-31T12:16:48;6.20;;;4.55;;
30543;SDS011;43388;46.308;4.600;2023-07-31T12:19:18;5.65;;;4.10;;
30543;SDS011;43388;46.308;4.600;2023-07-31T12:21:44;7.20;;;3.90;;
30543;SDS011;43388;46.308;4.600;2023-07-31T12:24:10;5.15;;;3.95;;
30543;SDS011;43388;46.308;4.600;2023-07-31T12:26:38;7.90;;;3.90;;
30543;SDS011;43388;46.308;4.600;2023-07-31T12:29:05;6.35;;;3.72;;
30543;SDS011;43388;46.308;4.600;2023-07-31T12:31:33;6.93;;;4.50;;
30543;SDS011;43388;46.308;4.600;2023-07-31T12:34:00;10.90;;;4.43;;
30543;SDS011;43388;46.308;4.600;2023-07-31T12:36:27;5.80;;;3.78;;
30543;SDS011;43388;46.308;4.600;2023-07-31T12:38:55;6.72;;;4.50;;
30543;SDS011;43388;46.308;4.600;2023-07-31T12:41:23;9.40;;;4.15;;
30543;SDS011;43388;46.308;4.600;2023-07-31T12:43:49;8.30;;;4.72;;
30543;SDS011;43388;46.308;4.600;2023-07-31T12:46:15;6.47;;;3.95;;
30543;SDS011;43388;46.308;4.600;2023-07-31T12:48:42;5.53;;;3.80;;
30543;SDS011;43388;46.308;4.600;2023-07-31T12:51:08;10.45;;;4.10;;
30543;SDS011;43388;46.308;4.600;2023-07-31T12:53:34;6.97;;;4.13;;
30543;SDS011;43388;46.308;4.600;2023-07-31T12:56:00;5.90;;;4.25;;
30543;SDS011;43388;46.308;4.600;2023-07-31T12:58:26;7.75;;;4.40;;
30543;SDS011;43388;46.308;4.600;2023-07-31T13:00:52;7.00;;;4.00;;
30543;SDS011;43388;46.308;4.600;2023-07-31T13:03:18;8.40;;;4.20;;
30543;SDS011;43388;46.308;4.600;2023-07-31T13:05:44;4.85;;;3.53;;
30543;SDS011;43388;46.308;4.600;2023-07-31T13:08:10;5.43;;;3.38;;
30543;SDS011;43388;46.308;4.600;2023-07-31T13:10:37;6.50;;;3.85;;
30543;SDS011;43388;46.308;4.600;2023-07-31T13:13:03;6.68;;;3.75;;
30543;SDS011;43388;46.308;4.600;2023-07-31T13:15:29;8.35;;;3.92;;
30543;SDS011;43388;46.308;4.600;2023-07-31T13:17:55;7.10;;;3.95;;
30543;SDS011;43388;46.308;4.600;2023-07-31T13:20:21;6.18;;;3.70;;
30543;SDS011;43388;46.308;4.600;2023-07-31T13:22:47;5.20;;;3.33;;
30543;SDS011;43388;46.308;4.600;2023-07-31T13:25:13;4.28;;;3.55;;
30543;SDS011;43388;46.308;4.600;2023-07-31T13:27:39;6.28;;;3.58;;
30543;SDS011;43388;46.308;4.600;2023-07-31T13:30:06;6.85;;;3.53;;
30543;SDS011;43388;46.308;4.600;2023-07-31T13:32:32;5.05;;;3.20;;
30543;SDS011;43388;46.308;4.600;2023-07-31T13:34:58;4.32;;;3.28;;
30543;SDS011;43388;46.308;4.600;2023-07-31T13:37:24;4.10;;;3.30;;
30543;SDS011;43388;46.308;4.600;2023-07-31T13:39:50;5.57;;;3.67;;
30543;SDS011;43388;46.308;4.600;2023-07-31T13:42:16;5.80;;;3.58;;
30543;SDS011;43388;46.308;4.600;2023-07-31T13:44:42;5.40;;;3.40;;
30543;SDS011;43388;46.308;4.600;2023-07-31T13:47:08;5.15;;;3.38;;
30543;SDS011;43388;46.308;4.600;2023-07-31T13:49:34;6.00;;;3.28;;
30543;SDS011;43388;46.308;4.600;2023-07-31T13:52:01;3.78;;;2.65;;
30543;SDS011;43388;46.308;4.600;2023-07-31T13:54:27;5.07;;;3.17;;
30543;SDS011;43388;46.308;4.600;2023-07-31T13:56:53;4.15;;;2.90;;
30543;SDS011;43388;46.308;4.600;2023-07-31T13:59:19;6.13;;;3.10;;
30543;SDS011;43388;46.308;4.600;2023-07-31T14:01:45;3.92;;;3.35;;
30543;SDS011;43388;46.308;4.600;2023-07-31T14:04:11;3.47;;;3.13;;
30543;SDS011;43388;46.308;4.600;2023-07-31T14:06:37;5.20;;;3.38;;
30543;SDS011;43388;46.308;4.600;2023-07-31T14:09:03;4.20;;;3.20;;
30543;SDS011;43388;46.308;4.600;2023-07-31T14:11:32;3.58;;;3.25;;
30543;SDS011;43388;46.308;4.600;2023-07-31T14:13:58;3.75;;;3.13;;
30543;SDS011;43388;46.308;4.600;2023-07-31T14:16:24;3.88;;;3.30;;
30543;SDS011;43388;46.308;4.600;2023-07-31T14:18:50;4.47;;;3.17;;
30543;SDS011;43388;46.308;4.600;2023-07-31T14:21:18;6.70;;;3.42;;
30543;SDS011;43388;46.308;4.600;2023-07-31T14:23:44;5.03;;;3.45;;
30543;SDS011;43388;46.308;4.600;2023-07-31T14:26:10;3.10;;;2.80;;
30543;SDS011;43388;46.308;4.600;2023-07-31T14:28:37;5.72;;;2.92;;
30543;SDS011;43388;46.308;4.600;2023-07-31T14:31:03;4.38;;;3.00;;
30543;SDS011;43388;46.308;4.600;2023-07-31T14:33:29;4.22;;;3.00;;
30543;SDS011;43388;46.308;4.600;2023-07-31T14:35:55;3.30;;;2.83;;
30543;SDS011;43388;46.308;4.600;2023-07-31T14:38:21;7.22;;;3.50;;
30543;SDS011;43388;46.308;4.600;2023-07-31T14:40:47;3.42;;;3.08;;
30543;SDS011;43388;46.308;4.600;2023-07-31T14:43:14;6.68;;;3.17;;
30543;SDS011;43388;46.308;4.600;2023-07-31T14:45:40;4.13;;;2.72;;
30543;SDS011;43388;46.308;4.600;2023-07-31T14:48:06;3.35;;;2.97;;
30543;SDS011;43388;46.308;4.600;2023-07-31T14:50:32;5.13;;;2.88;;
30543;SDS011;43388;46.308;4.600;2023-07-31T14:52:58;3.80;;;2.92;;